createdAt,value
2023-05-23T00:00:17.997Z,5.10
2023-05-23T00:03:06.656Z,6.00
2023-05-23T00:05:36.225Z,9.30
2023-05-23T00:08:04.432Z,5.50
2023-05-23T00:10:32.603Z,10.10
2023-05-23T00:13:01.553Z,5.50
2023-05-23T00:15:30.153Z,4.10
2023-05-23T00:18:00.343Z,4.80
2023-05-23T00:20:30.597Z,5.60
2023-05-23T00:22:58.764Z,7.60
2023-05-23T00:25:34.159Z,6.40
2023-05-23T00:28:03.939Z,7.20
2023-05-23T00:30:33.676Z,8.40
2023-05-23T00:33:02.255Z,8.60
2023-05-23T00:35:30.583Z,7.90
2023-05-23T00:37:58.669Z,7.80
2023-05-23T00:40:27.056Z,5.50
2023-05-23T00:42:55.187Z,4.60
2023-05-23T00:45:23.704Z,9.20
2023-05-23T00:47:53.152Z,4.70
2023-05-23T00:50:22.258Z,6.60
2023-05-23T00:52:50.970Z,7.40
2023-05-23T00:55:19.385Z,6.70
2023-05-23T00:57:51.374Z,7.90
2023-05-23T01:00:20.848Z,4.10
2023-05-23T01:02:53.972Z,5.90
2023-05-23T01:05:25.303Z,5.20
2023-05-23T01:07:54.712Z,4.50
2023-05-23T01:10:30.334Z,8.10
2023-05-23T01:12:58.612Z,4.30
2023-05-23T01:15:37.274Z,6.90
2023-05-23T01:18:20.144Z,6.60
2023-05-23T01:20:56.257Z,7.20
2023-05-23T01:23:55.884Z,4.30
2023-05-23T01:26:55.038Z,7.50
2023-05-23T01:29:28.666Z,9.10
2023-05-23T01:31:59.225Z,4.60
2023-05-23T01:34:30.148Z,7.70
2023-05-23T01:37:00.574Z,6.40
2023-05-23T01:39:28.787Z,6.30
2023-05-23T01:41:57.215Z,6.40
2023-05-23T01:44:25.383Z,8.10
2023-05-23T01:46:53.490Z,5.70
2023-05-23T01:49:23.747Z,7.80
2023-05-23T01:51:54.229Z,5.20
2023-05-23T01:54:23.077Z,4.50
2023-05-23T01:56:51.444Z,5.80
2023-05-23T01:59:19.613Z,6.20
2023-05-23T02:01:47.856Z,5.40
2023-05-23T02:04:16.348Z,5.50
2023-05-23T02:06:44.545Z,6.00
2023-05-23T02:09:14.820Z,11.50
2023-05-23T02:11:43.664Z,8.20
2023-05-23T02:14:13.092Z,6.50
2023-05-23T02:16:41.558Z,5.50
2023-05-23T02:19:09.840Z,7.60
2023-05-23T02:21:39.188Z,6.10
2023-05-23T02:24:07.946Z,5.00
2023-05-23T02:26:36.085Z,6.40
2023-05-23T02:29:04.421Z,6.40
2023-05-23T02:31:32.704Z,6.00
2023-05-23T02:34:04.342Z,6.70
2023-05-23T02:36:33.580Z,9.80
2023-05-23T02:39:01.939Z,5.90
2023-05-23T02:41:30.698Z,8.30
2023-05-23T02:44:00.095Z,7.30
2023-05-23T02:46:28.486Z,8.00
2023-05-23T02:48:56.720Z,4.70
2023-05-23T02:51:24.928Z,6.40
2023-05-23T02:53:53.231Z,9.50
2023-05-23T02:56:22.953Z,4.70
2023-05-23T02:58:53.477Z,9.40
2023-05-23T03:01:21.655Z,7.00
2023-05-23T03:03:50.152Z,6.10
2023-05-23T03:06:18.560Z,5.20
2023-05-23T03:08:48.295Z,4.60
2023-05-23T03:11:16.521Z,10.90
2023-05-23T03:13:45.554Z,5.40
2023-05-23T03:16:13.795Z,7.60
2023-05-23T03:18:42.298Z,8.00
2023-05-23T03:21:10.576Z,4.80
2023-05-23T03:23:39.068Z,8.70
2023-05-23T03:26:07.329Z,9.50
2023-05-23T03:28:37.034Z,8.90
2023-05-23T03:31:05.398Z,10.30
2023-05-23T03:33:33.859Z,6.70
2023-05-23T03:36:02.630Z,9.20
2023-05-23T03:38:30.991Z,6.40
2023-05-23T03:40:59.234Z,4.70
2023-05-23T03:43:27.923Z,5.90
2023-05-23T03:45:56.079Z,11.70
2023-05-23T03:48:24.298Z,7.00
2023-05-23T03:50:52.645Z,6.80
2023-05-23T03:53:20.891Z,9.20
2023-05-23T03:55:49.117Z,6.30
2023-05-23T03:58:18.570Z,6.60
2023-05-23T04:00:47.401Z,6.20
2023-05-23T04:03:17.774Z,8.50
2023-05-23T04:05:46.624Z,7.40
2023-05-23T04:08:16.452Z,7.30
2023-05-23T04:10:45.616Z,6.10
2023-05-23T04:13:13.823Z,6.10
2023-05-23T04:15:43.004Z,5.30
2023-05-23T04:18:13.077Z,6.30
2023-05-23T04:20:42.121Z,8.10
2023-05-23T04:23:10.533Z,6.70
2023-05-23T04:25:41.425Z,6.60
2023-05-23T04:28:19.077Z,4.30
2023-05-23T04:30:49.571Z,6.40
2023-05-23T04:33:22.571Z,7.00
2023-05-23T04:35:52.482Z,7.60
2023-05-23T04:38:22.245Z,8.10
2023-05-23T04:40:52.957Z,5.30
2023-05-23T04:43:43.469Z,8.30
2023-05-23T04:46:22.342Z,4.00
2023-05-23T04:49:00.374Z,6.30
2023-05-23T04:51:30.087Z,5.50
2023-05-23T04:54:05.021Z,7.60
2023-05-23T04:56:34.918Z,9.80
2023-05-23T04:59:03.151Z,6.10
2023-05-23T05:01:32.025Z,9.70
2023-05-23T05:04:01.381Z,9.80
2023-05-23T05:06:31.203Z,5.50
2023-05-23T05:09:01.933Z,5.70
2023-05-23T05:11:30.726Z,6.90
2023-05-23T05:14:01.422Z,5.80
2023-05-23T05:16:29.618Z,6.40
2023-05-23T05:18:57.905Z,6.00
2023-05-23T05:21:27.102Z,6.30
2023-05-23T05:23:57.843Z,6.80
2023-05-23T05:26:27.264Z,5.60
2023-05-23T05:28:57.161Z,7.90
2023-05-23T05:31:25.426Z,7.90
2023-05-23T05:33:54.621Z,4.90
2023-05-23T05:36:22.845Z,7.10
2023-05-23T05:38:53.960Z,7.30
2023-05-23T05:41:22.848Z,7.00
2023-05-23T05:43:53.040Z,5.70
2023-05-23T05:46:21.997Z,6.60
2023-05-23T05:48:50.887Z,9.40
2023-05-23T05:51:21.083Z,7.90
2023-05-23T05:53:50.047Z,6.60
2023-05-23T05:56:19.758Z,5.60
2023-05-23T05:58:48.000Z,6.10
2023-05-23T06:01:17.737Z,7.00
2023-05-23T06:03:46.184Z,5.80
2023-05-23T06:06:14.789Z,5.60
2023-05-23T06:08:44.382Z,7.40
2023-05-23T06:11:18.125Z,7.90
2023-05-23T06:13:46.579Z,7.70
2023-05-23T06:16:15.573Z,8.30
2023-05-23T06:18:44.153Z,6.10
2023-05-23T06:21:12.919Z,6.10
2023-05-23T06:23:43.657Z,8.00
2023-05-23T06:26:13.156Z,10.70
2023-05-23T06:28:41.690Z,8.20
2023-05-23T06:31:11.019Z,6.00
2023-05-23T06:33:40.056Z,5.60
2023-05-23T06:36:10.038Z,4.90
2023-05-23T06:38:38.495Z,5.60
2023-05-23T06:41:07.613Z,8.10
2023-05-23T06:43:37.407Z,8.00
2023-05-23T06:46:24.983Z,5.10
2023-05-23T06:49:02.512Z,5.50
2023-05-23T06:51:35.140Z,5.40
2023-05-23T06:54:03.594Z,7.30
2023-05-23T06:56:31.971Z,7.10
2023-05-23T06:59:01.334Z,7.90
2023-05-23T07:01:31.135Z,7.80
2023-05-23T07:03:59.436Z,4.80
2023-05-23T07:06:27.776Z,4.60
2023-05-23T07:08:56.012Z,4.10
2023-05-23T07:11:25.444Z,4.60
2023-05-23T07:13:56.991Z,7.10
2023-05-23T07:16:39.505Z,6.80
2023-05-23T07:19:09.111Z,7.70
2023-05-23T07:21:43.435Z,6.50
2023-05-23T07:24:12.374Z,6.70
2023-05-23T07:26:45.738Z,5.50
2023-05-23T07:29:15.334Z,8.60
2023-05-23T07:31:44.832Z,8.60
2023-05-23T07:34:14.693Z,8.00
2023-05-23T07:36:51.290Z,6.80
2023-05-23T07:39:22.836Z,7.50
2023-05-23T07:41:52.079Z,7.00
2023-05-23T07:44:23.215Z,6.40
2023-05-23T07:46:54.296Z,6.10
2023-05-23T07:49:23.660Z,7.40
2023-05-23T07:51:52.440Z,7.20
2023-05-23T07:54:21.025Z,7.10
2023-05-23T07:56:50.669Z,7.80
2023-05-23T07:59:20.787Z,10.40
2023-05-23T08:01:51.305Z,5.30
2023-05-23T08:04:21.902Z,7.50
2023-05-23T08:09:28.707Z,7.20
2023-05-23T08:11:57.974Z,6.40
2023-05-23T08:14:38.225Z,7.90
2023-05-23T08:17:35.434Z,4.70
2023-05-23T08:20:06.005Z,6.40
2023-05-23T08:22:36.289Z,6.90
2023-05-23T08:25:06.808Z,5.00
2023-05-23T08:27:37.259Z,5.00
2023-05-23T08:30:12.783Z,6.10
2023-05-23T08:32:41.145Z,7.10
2023-05-23T08:35:11.631Z,6.40
2023-05-23T08:37:43.022Z,10.00
2023-05-23T08:40:23.122Z,4.90
2023-05-23T08:43:05.272Z,4.60
2023-05-23T08:45:36.171Z,6.50
2023-05-23T08:48:10.240Z,10.00
2023-05-23T08:50:46.964Z,6.70
2023-05-23T08:53:20.692Z,6.80
2023-05-23T08:55:52.064Z,7.30
2023-05-23T08:58:21.196Z,11.80
2023-05-23T09:00:55.683Z,7.60
2023-05-23T09:03:29.944Z,16.90
2023-05-23T09:06:08.253Z,7.40
2023-05-23T09:08:37.277Z,6.90
2023-05-23T09:11:06.983Z,10.00
2023-05-23T09:13:38.270Z,5.20
2023-05-23T09:16:11.430Z,5.90
2023-05-23T09:18:46.457Z,5.70
2023-05-23T09:21:16.846Z,7.50
2023-05-23T09:44:09.346Z,7.80
2023-05-23T09:46:38.952Z,4.60
2023-05-23T09:49:22.719Z,9.10
2023-05-23T09:51:59.948Z,10.00
2023-05-23T09:54:29.720Z,9.30
2023-05-23T09:57:01.635Z,7.30
2023-05-23T09:59:32.551Z,10.30
2023-05-23T10:02:04.026Z,6.90
2023-05-23T10:04:35.713Z,8.90
2023-05-23T10:07:14.792Z,7.10
2023-05-23T10:09:53.194Z,17.10
2023-05-23T10:12:52.530Z,9.00
2023-05-23T10:15:25.125Z,7.20
2023-05-23T10:18:06.131Z,5.60
2023-05-23T10:20:39.316Z,5.50
2023-05-23T10:23:07.997Z,10.60
2023-05-23T10:25:37.474Z,7.10
2023-05-23T10:28:07.972Z,10.40
2023-05-23T10:30:44.054Z,12.20
2023-05-23T10:33:17.140Z,8.10
2023-05-23T10:36:22.460Z,7.90
2023-05-23T10:39:00.885Z,16.50
2023-05-23T10:41:56.931Z,5.80
2023-05-23T10:44:32.850Z,8.10
2023-05-23T10:47:05.973Z,6.10
2023-05-23T10:49:42.905Z,14.60
2023-05-23T10:52:19.546Z,6.50
2023-05-23T10:54:54.880Z,22.30
2023-05-23T10:57:29.189Z,13.80
2023-05-23T10:59:57.888Z,12.20
2023-05-23T11:02:29.077Z,8.00
2023-05-23T11:05:22.927Z,5.50
2023-05-23T11:08:16.433Z,5.80
2023-05-23T11:11:06.648Z,4.70
2023-05-23T11:13:58.189Z,6.90
2023-05-23T11:16:41.923Z,11.20
2023-05-23T11:19:20.570Z,7.30
2023-05-23T11:22:01.733Z,7.10
2023-05-23T11:24:50.502Z,9.90
2023-05-23T11:27:28.625Z,13.10
2023-05-23T11:30:02.324Z,12.80
2023-05-23T11:32:32.109Z,8.60
2023-05-23T11:35:08.426Z,6.60
2023-05-23T11:37:38.709Z,6.50
2023-05-23T11:40:55.049Z,8.50
2023-05-23T11:43:24.001Z,6.10
2023-05-23T11:45:52.225Z,5.70
2023-05-23T11:48:24.520Z,7.30
2023-05-23T11:50:54.504Z,7.40
2023-05-23T11:53:25.892Z,11.30
2023-05-23T11:55:57.931Z,4.80
2023-05-23T11:58:31.943Z,6.10
2023-05-23T12:01:08.573Z,8.30
2023-05-23T12:03:48.180Z,28.90
2023-05-23T12:06:19.145Z,7.70
2023-05-23T12:08:47.908Z,8.70
2023-05-23T12:11:16.341Z,10.60
2023-05-23T12:13:45.437Z,18.50
2023-05-23T12:16:17.761Z,9.90
2023-05-23T12:18:46.366Z,9.00
2023-05-23T12:21:14.674Z,9.60
2023-05-23T12:23:45.847Z,5.70
2023-05-23T12:26:14.086Z,9.10
2023-05-23T12:28:45.441Z,6.70
2023-05-23T12:31:19.412Z,7.30
2023-05-23T12:33:49.768Z,4.50
2023-05-23T12:36:26.233Z,5.50
2023-05-23T12:39:03.101Z,28.10
2023-05-23T12:41:33.158Z,5.90
2023-05-23T12:44:03.083Z,9.30
2023-05-23T12:46:40.739Z,6.10
2023-05-23T12:49:14.441Z,10.50
2023-05-23T12:51:42.877Z,10.40
2023-05-23T12:54:11.642Z,12.10
2023-05-23T12:56:40.379Z,9.00
2023-05-23T12:59:08.766Z,11.50
2023-05-23T13:01:37.032Z,6.90
2023-05-23T13:04:06.397Z,6.30
2023-05-23T13:06:34.819Z,9.30
2023-05-23T13:09:04.877Z,7.60
2023-05-23T13:11:35.588Z,9.40
2023-05-23T13:14:04.383Z,23.70
2023-05-23T13:16:33.364Z,11.10
2023-05-23T13:19:02.022Z,9.40
2023-05-23T13:21:30.315Z,6.40
2023-05-23T13:24:00.660Z,10.40
2023-05-23T13:26:29.011Z,10.40
2023-05-23T13:28:57.243Z,5.60
2023-05-23T13:31:25.589Z,7.00
2023-05-23T13:33:53.827Z,15.90
2023-05-23T13:36:22.112Z,8.30
2023-05-23T13:38:50.247Z,9.50
2023-05-23T13:41:18.462Z,19.80
2023-05-23T13:43:47.370Z,8.80
2023-05-23T13:46:15.639Z,12.60
2023-05-23T13:48:43.965Z,6.30
2023-05-23T13:51:12.475Z,7.20
2023-05-23T13:53:40.753Z,11.50
2023-05-23T13:56:08.939Z,6.50
2023-05-23T13:58:37.132Z,16.80
2023-05-23T14:01:05.402Z,9.00
2023-05-23T14:03:33.852Z,14.00
2023-05-23T14:06:02.503Z,9.80
2023-05-23T14:08:31.682Z,8.00
2023-05-23T14:11:00.550Z,8.50
2023-05-23T14:13:29.897Z,13.60
2023-05-23T14:15:58.372Z,8.00
2023-05-23T14:18:28.021Z,8.70
2023-05-23T14:20:57.207Z,9.00
2023-05-23T14:23:25.458Z,9.70
2023-05-23T14:25:53.654Z,11.20
2023-05-23T14:28:21.883Z,11.00
2023-05-23T14:30:50.083Z,11.40
2023-05-23T14:33:18.764Z,17.40
2023-05-23T14:35:47.012Z,6.80
2023-05-23T14:38:15.107Z,15.30
2023-05-23T14:40:44.384Z,24.00
2023-05-23T14:43:13.405Z,7.80
2023-05-23T14:45:42.601Z,7.20
2023-05-23T14:48:11.678Z,9.60
2023-05-23T14:50:40.973Z,8.60
2023-05-23T14:53:09.216Z,10.60
2023-05-23T14:55:38.889Z,6.70
2023-05-23T14:58:07.253Z,7.20
2023-05-23T15:00:36.119Z,7.00
2023-05-23T15:03:05.388Z,9.90
2023-05-23T15:05:33.566Z,7.20
2023-05-23T15:08:01.911Z,5.90
2023-05-23T15:10:32.965Z,6.80
2023-05-23T15:13:03.520Z,10.50
2023-05-23T15:15:37.953Z,8.60
2023-05-23T15:18:11.356Z,10.30
2023-05-23T15:20:39.878Z,8.90
2023-05-23T15:23:08.387Z,14.20
2023-05-23T15:25:47.879Z,11.80
2023-05-23T15:28:17.461Z,6.20
2023-05-23T15:30:45.718Z,10.00
2023-05-23T15:33:16.199Z,9.70
2023-05-23T15:35:44.812Z,14.90
2023-05-23T15:38:14.739Z,5.40
2023-05-23T15:40:44.021Z,12.10
2023-05-23T15:43:14.944Z,10.90
2023-05-23T15:45:46.763Z,11.20
2023-05-23T15:48:17.049Z,9.00
2023-05-23T15:50:46.762Z,11.30
2023-05-23T15:53:14.986Z,9.30
2023-05-23T15:55:43.280Z,9.30
2023-05-23T15:58:13.648Z,7.20
2023-05-23T16:00:42.507Z,7.20
2023-05-23T16:03:11.156Z,7.00
2023-05-23T16:05:40.820Z,10.70
2023-05-23T16:08:10.031Z,7.90
2023-05-23T16:10:38.568Z,11.80
2023-05-23T16:13:07.968Z,9.10
2023-05-23T16:15:36.700Z,10.10
2023-05-23T16:18:05.108Z,7.90
2023-05-23T16:20:35.512Z,11.20
2023-05-23T16:23:03.910Z,7.50
2023-05-23T16:25:32.081Z,17.70
2023-05-23T16:28:00.684Z,11.50
2023-05-23T16:30:29.190Z,5.30
2023-05-23T16:32:57.785Z,13.10
2023-05-23T16:35:26.156Z,6.80
2023-05-23T16:37:54.368Z,7.00
2023-05-23T16:40:23.142Z,7.40
2023-05-23T16:42:52.803Z,6.70
2023-05-23T16:45:21.878Z,6.00
2023-05-23T16:47:50.423Z,11.90
2023-05-23T16:50:19.679Z,9.20
2023-05-23T16:52:47.973Z,8.70
2023-05-23T16:55:16.149Z,8.50
2023-05-23T16:57:44.379Z,13.10
2023-05-23T17:00:13.456Z,11.70
2023-05-23T17:02:42.902Z,9.70
2023-05-23T17:05:11.506Z,13.80
2023-05-23T17:07:39.719Z,10.30
2023-05-23T17:10:08.761Z,16.90
2023-05-23T17:12:38.127Z,12.60
2023-05-23T17:15:07.701Z,11.30
2023-05-23T17:17:36.304Z,9.40
2023-05-23T17:20:04.919Z,13.70
2023-05-23T17:22:33.374Z,13.20
2023-05-23T17:25:02.187Z,14.40
2023-05-23T17:27:30.419Z,8.80
2023-05-23T17:29:59.953Z,13.90
2023-05-23T17:32:29.157Z,11.70
2023-05-23T17:34:57.460Z,18.50
2023-05-23T17:37:26.858Z,12.30
2023-05-23T17:39:57.491Z,13.40
2023-05-23T17:42:26.280Z,15.80
2023-05-23T17:44:54.621Z,16.10
2023-05-23T17:47:23.478Z,13.40
2023-05-23T17:49:51.818Z,15.00
2023-05-23T17:52:19.955Z,8.70
2023-05-23T17:54:48.146Z,14.20
2023-05-23T17:57:17.285Z,12.80
2023-05-23T17:59:46.935Z,15.40
2023-05-23T18:02:15.405Z,17.20
2023-05-23T18:04:43.728Z,19.00
2023-05-23T18:07:13.184Z,17.60
2023-05-23T18:09:41.624Z,13.10
2023-05-23T18:12:11.609Z,15.90
2023-05-23T18:14:40.079Z,22.10
2023-05-23T18:17:10.274Z,17.90
2023-05-23T18:19:38.595Z,14.50
2023-05-23T18:22:07.002Z,11.60
2023-05-23T18:24:35.155Z,11.80
2023-05-23T18:27:04.704Z,13.30
2023-05-23T18:29:35.916Z,19.60
2023-05-23T18:32:05.541Z,19.00
2023-05-23T18:34:34.005Z,11.70
2023-05-23T18:37:03.249Z,11.90
2023-05-23T18:39:31.740Z,13.40
2023-05-23T18:42:00.001Z,20.70
2023-05-23T18:44:28.368Z,21.00
2023-05-23T18:46:57.134Z,14.20
2023-05-23T18:49:25.381Z,12.80
2023-05-23T18:51:54.613Z,18.40
2023-05-23T18:54:22.861Z,15.50
2023-05-23T18:56:51.067Z,16.40
2023-05-23T18:59:19.256Z,16.90
2023-05-23T19:01:47.591Z,15.50
2023-05-23T19:04:16.011Z,15.30
2023-05-23T19:06:45.656Z,14.10
2023-05-23T19:09:13.860Z,18.80
2023-05-23T19:11:42.109Z,19.00
2023-05-23T19:14:10.458Z,11.80
2023-05-23T19:16:40.278Z,16.50
2023-05-23T19:19:08.612Z,20.60
2023-05-23T19:21:39.672Z,16.00
2023-05-23T19:24:08.714Z,12.60
2023-05-23T19:26:37.320Z,17.90
2023-05-23T19:29:06.517Z,16.00
2023-05-23T19:31:34.823Z,15.70
2023-05-23T19:34:06.736Z,11.20
2023-05-23T19:36:35.747Z,19.30
2023-05-23T19:39:04.796Z,12.70
2023-05-23T19:41:33.884Z,21.60
2023-05-23T19:44:03.943Z,13.80
2023-05-23T19:46:32.233Z,17.10
2023-05-23T19:49:01.118Z,21.70
2023-05-23T19:51:31.827Z,24.00
2023-05-23T19:54:00.084Z,15.80
2023-05-23T19:56:28.882Z,9.80
2023-05-23T19:58:58.609Z,19.80
2023-05-23T20:01:27.808Z,16.80
2023-05-23T20:03:56.369Z,12.50
2023-05-23T20:06:24.653Z,16.00
2023-05-23T20:08:52.753Z,11.90
2023-05-23T20:11:22.645Z,20.90
2023-05-23T20:13:51.157Z,11.60
2023-05-23T20:16:19.568Z,17.40
2023-05-23T20:18:47.977Z,19.80
2023-05-23T20:21:25.333Z,19.00
2023-05-23T20:23:54.879Z,14.60
2023-05-23T20:26:24.395Z,11.60
2023-05-23T20:28:52.686Z,10.10
2023-05-23T20:31:21.000Z,16.80
2023-05-23T20:33:52.201Z,9.80
2023-05-23T20:36:21.916Z,12.60
2023-05-23T20:38:50.533Z,16.80
2023-05-23T20:41:19.040Z,10.30
2023-05-23T20:43:48.432Z,8.50
2023-05-23T20:46:16.703Z,10.90
2023-05-23T20:48:45.041Z,15.20
2023-05-23T20:51:13.711Z,15.20
2023-05-23T20:53:42.142Z,17.90
2023-05-23T20:56:10.691Z,17.70
2023-05-23T20:58:39.056Z,18.00
2023-05-23T21:01:08.213Z,19.10
2023-05-23T21:03:36.523Z,16.90
2023-05-23T21:06:04.919Z,14.40
2023-05-23T21:08:34.781Z,14.60
2023-05-23T21:11:03.260Z,16.00
2023-05-23T21:13:31.520Z,14.60
2023-05-23T21:15:59.691Z,17.50
2023-05-23T21:18:27.875Z,13.40
2023-05-23T21:20:56.046Z,12.30
2023-05-23T21:23:24.289Z,15.60
2023-05-23T21:25:53.257Z,14.30
2023-05-23T21:28:21.474Z,15.90
2023-05-23T21:30:50.226Z,9.70
2023-05-23T21:33:18.433Z,11.80
2023-05-23T21:35:46.719Z,15.00
2023-05-23T21:38:15.124Z,13.50
2023-05-23T21:40:44.941Z,12.00
2023-05-23T21:43:13.310Z,10.10
2023-05-23T21:45:41.957Z,12.50
2023-05-23T21:48:10.028Z,15.90
2023-05-23T21:50:38.218Z,13.00
2023-05-23T21:53:06.456Z,13.90
2023-05-23T21:55:34.739Z,13.90
2023-05-23T21:58:02.922Z,13.00
2023-05-23T22:00:31.208Z,13.00
2023-05-23T22:02:59.526Z,13.80
2023-05-23T22:05:28.115Z,12.00
2023-05-23T22:07:56.492Z,15.90
2023-05-23T22:10:24.636Z,13.90
2023-05-23T22:12:52.865Z,11.60
2023-05-23T22:15:21.087Z,12.20
2023-05-23T22:17:49.233Z,12.90
2023-05-23T22:20:18.531Z,11.20
2023-05-23T22:22:47.862Z,13.20
2023-05-23T22:25:16.067Z,12.80
2023-05-23T22:27:44.213Z,13.20
2023-05-23T22:30:12.679Z,15.90
2023-05-23T22:32:41.007Z,15.50
2023-05-23T22:35:09.669Z,17.40
2023-05-23T22:37:38.039Z,21.90
2023-05-23T22:40:10.500Z,23.50
2023-05-23T22:42:40.181Z,30.00
2023-05-23T22:45:15.494Z,24.80
2023-05-23T22:47:44.921Z,25.00
2023-05-23T22:50:13.139Z,21.90
2023-05-23T22:52:41.250Z,23.40
2023-05-23T22:55:09.932Z,19.00
2023-05-23T22:57:37.993Z,26.10
2023-05-23T23:00:07.137Z,19.70
2023-05-23T23:02:35.303Z,15.90
2023-05-23T23:05:03.584Z,16.90
2023-05-23T23:07:31.875Z,12.80
2023-05-23T23:10:00.054Z,14.10
2023-05-23T23:12:28.294Z,16.50
2023-05-23T23:14:56.522Z,16.70
2023-05-23T23:17:26.224Z,16.20
2023-05-23T23:19:55.789Z,13.90
2023-05-23T23:22:24.979Z,12.50
2023-05-23T23:24:53.489Z,17.70
2023-05-23T23:27:30.879Z,20.50
2023-05-23T23:29:59.427Z,14.50
2023-05-23T23:32:27.746Z,13.90
2023-05-23T23:34:56.029Z,14.20
2023-05-23T23:37:25.298Z,11.40
2023-05-23T23:39:53.434Z,16.40
2023-05-23T23:42:21.677Z,16.70
2023-05-23T23:44:49.799Z,12.00
2023-05-23T23:47:18.174Z,14.20
2023-05-23T23:49:46.545Z,10.80
2023-05-23T23:52:15.156Z,11.60
2023-05-23T23:54:43.366Z,7.40
2023-05-23T23:57:14.235Z,9.20
2023-05-23T23:59:42.932Z,9.00
